Time;durP1;ratioP1;P1;durP2;ratioP2;P2;SDS_P1;SDS_P2;PMS_P1;PMS_P2;Temp;Humidity;BMP_temperature;BMP_pressure;BME280_temperature;BME280_humidity;BME280_pressure;Samples;Min_cycle;Max_cycle;Signal;HPM_P1;HPM_P2
2022/11/22 00:00:06;;;;;;;0.70;0.70;;;-0.80;99.90;;;;;;5115970;28;20238;-74
2022/11/22 00:02:33;;;;;;;0.73;0.73;;;-0.80;99.90;;;;;;5115683;28;20680;-74
2022/11/22 00:04:59;;;;;;;0.80;0.80;;;-0.80;99.90;;;;;;5115705;28;20208;-74
2022/11/22 00:07:24;;;;;;;0.70;0.70;;;-0.80;99.90;;;;;;5115807;28;20195;-75
2022/11/22 00:09:50;;;;;;;0.80;0.80;;;-0.80;99.90;;;;;;5115607;28;20255;-75
2022/11/22 00:12:15;;;;;;;0.70;0.70;;;-0.80;99.90;;;;;;5097360;28;20554;-74
2022/11/22 00:14:41;;;;;;;0.65;0.65;;;-0.80;99.90;;;;;;5097222;28;20195;-74
2022/11/22 00:17:07;;;;;;;0.70;0.70;;;-0.70;99.90;;;;;;5097333;28;20200;-74
2022/11/22 00:19:34;;;;;;;0.70;0.70;;;-0.70;99.90;;;;;;5115431;28;20558;-75
2022/11/22 00:22:00;;;;;;;0.70;0.70;;;-0.70;99.90;;;;;;5097450;28;20199;-74
2022/11/22 00:24:26;;;;;;;0.60;0.60;;;-0.70;99.90;;;;;;5096912;28;20722;-75
2022/11/22 00:26:51;;;;;;;0.60;0.60;;;-0.70;99.90;;;;;;5087301;28;20329;-73
2022/11/22 00:29:17;;;;;;;0.73;0.73;;;-0.60;99.90;;;;;;5076687;28;20230;-74
2022/11/22 00:31:43;;;;;;;0.70;0.70;;;-0.60;99.90;;;;;;5094837;28;20616;-73
2022/11/22 00:34:08;;;;;;;0.63;0.63;;;-0.60;99.90;;;;;;5094953;28;20199;-75
2022/11/22 00:36:34;;;;;;;0.70;0.70;;;-0.70;99.90;;;;;;5076552;28;20316;-74
2022/11/22 00:39:00;;;;;;;0.60;0.60;;;-0.60;99.90;;;;;;5111637;28;20195;-75
2022/11/22 00:41:25;;;;;;;0.70;0.70;;;-0.60;99.90;;;;;;5096710;28;20195;-74
2022/11/22 00:43:51;;;;;;;0.70;0.70;;;-0.60;99.90;;;;;;5096757;28;20272;-74
2022/11/22 00:46:17;;;;;;;0.70;0.70;;;-0.60;99.90;;;;;;5114799;28;20527;-74
2022/11/22 00:48:42;;;;;;;0.80;0.80;;;-0.60;99.90;;;;;;5114516;28;20225;-75
2022/11/22 00:51:08;;;;;;;0.75;0.75;;;-0.60;99.90;;;;;;5114878;28;20191;-74
2022/11/22 00:53:34;;;;;;;0.70;0.70;;;-0.70;99.90;;;;;;5114735;28;20202;-75
2022/11/22 00:55:59;;;;;;;0.60;0.60;;;-0.60;99.90;;;;;;5096563;28;20283;-75
2022/11/22 00:58:25;;;;;;;0.60;0.60;;;-0.60;99.90;;;;;;5114643;28;20194;-75
2022/11/22 01:00:50;;;;;;;0.70;0.70;;;-0.60;99.90;;;;;;5114692;28;20250;-75
2022/11/22 01:03:16;;;;;;;0.60;0.60;;;-0.60;99.90;;;;;;5096395;28;20711;-74
2022/11/22 01:05:42;;;;;;;0.70;0.70;;;-0.50;99.90;;;;;;5096118;28;20203;-75
2022/11/22 01:08:08;;;;;;;0.60;0.60;;;-0.60;99.90;;;;;;5105881;28;20232;-74
2022/11/22 01:10:35;;;;;;;2.10;1.70;;;-0.50;99.90;;;;;;5093930;28;20731;-75
2022/11/22 01:13:01;;;;;;;0.70;0.70;;;-0.50;99.90;;;;;;5075886;28;20654;-75
2022/11/22 01:15:27;;;;;;;0.80;0.80;;;-0.50;99.90;;;;;;5093827;28;20651;-75
2022/11/22 01:17:53;;;;;;;0.70;0.70;;;-0.50;99.90;;;;;;5094045;28;20215;-74
2022/11/22 01:20:19;;;;;;;0.70;0.70;;;-0.50;99.90;;;;;;5093884;28;20238;-75
2022/11/22 01:22:44;;;;;;;1.17;1.13;;;-0.50;99.90;;;;;;5110449;28;20203;-75
2022/11/22 01:25:10;;;;;;;0.70;0.70;;;-0.50;99.90;;;;;;5114095;28;20208;-74
2022/11/22 01:27:36;;;;;;;1.95;1.50;;;-0.50;99.90;;;;;;5095805;28;20215;-74
2022/11/22 01:30:03;;;;;;;0.60;0.60;;;-0.40;99.90;;;;;;5114068;28;20226;-74
2022/11/22 01:32:28;;;;;;;0.70;0.70;;;-0.40;99.90;;;;;;5113962;28;20191;-75
2022/11/22 01:34:54;;;;;;;0.60;0.60;;;-0.40;99.90;;;;;;5114042;28;20187;-74
2022/11/22 01:37:20;;;;;;;0.60;0.60;;;-0.30;99.90;;;;;;5113576;28;20199;-74
2022/11/22 01:39:45;;;;;;;0.70;0.70;;;-0.30;99.90;;;;;;5095748;28;20200;-74
2022/11/22 01:42:11;;;;;;;0.70;0.70;;;-0.40;99.90;;;;;;5095716;28;20286;-75
2022/11/22 01:44:41;;;;;;;0.73;0.73;;;-0.40;99.90;;;;;;5113414;28;20247;-74
2022/11/22 01:47:11;;;;;;;0.50;0.50;;;-0.30;99.90;;;;;;5095506;28;20669;-74
2022/11/22 01:50:05;;;;;;;0.70;0.70;;;-0.30;99.90;;;;;;5113914;28;20187;-74
2022/11/22 01:52:33;;;;;;;0.70;0.70;;;-0.30;99.90;;;;;;5092661;28;20195;-75
2022/11/22 01:55:03;;;;;;;0.70;0.70;;;-0.30;99.90;;;;;;5113652;28;20804;-75
2022/11/22 01:57:33;;;;;;;0.60;0.60;;;-0.20;99.90;;;;;;5112956;28;20191;-75
2022/11/22 02:00:03;;;;;;;0.85;0.80;;;-0.20;99.90;;;;;;5113715;28;20228;-74
2022/11/22 02:02:29;;;;;;;0.70;0.70;;;-0.20;99.90;;;;;;5113632;28;20198;-73
2022/11/22 02:04:57;;;;;;;0.60;0.60;;;-0.20;99.90;;;;;;5113487;28;20215;-73
2022/11/22 02:07:40;;;;;;;0.60;0.60;;;-0.20;99.90;;;;;;5113563;28;20729;-71
2022/11/22 02:10:07;;;;;;;0.70;0.70;;;-0.20;99.90;;;;;;5095164;28;20218;-73
2022/11/22 02:12:34;;;;;;;0.85;0.82;;;-0.10;99.90;;;;;;5113222;28;20199;-73
2022/11/22 02:15:01;;;;;;;0.68;0.68;;;-0.10;99.90;;;;;;5095059;28;20203;-73
2022/11/22 02:17:28;;;;;;;0.60;0.60;;;-0.10;99.90;;;;;;5113074;28;20192;-73
2022/11/22 02:19:54;;;;;;;0.70;0.70;;;-0.10;99.90;;;;;;5099254;28;20613;-73
2022/11/22 02:22:38;;;;;;;0.60;0.60;;;-0.10;99.90;;;;;;5092703;28;20576;-72
2022/11/22 02:25:26;;;;;;;0.70;0.70;;;-0.10;99.90;;;;;;5092887;28;20278;-75
2022/11/22 02:27:52;;;;;;;0.60;0.60;;;0.00;99.90;;;;;;5092952;28;20693;-73
2022/11/22 02:30:18;;;;;;;0.80;0.80;;;0.00;99.90;;;;;;5074667;28;20196;-74
2022/11/22 02:32:43;;;;;;;0.57;0.57;;;0.00;99.90;;;;;;5074734;28;20287;-75
2022/11/22 02:35:24;;;;;;;0.70;0.70;;;0.00;99.90;;;;;;5074560;28;20204;-75
2022/11/22 02:37:56;;;;;;;0.70;0.70;;;-0.10;99.90;;;;;;5099875;28;20718;-74
2022/11/22 02:40:25;;;;;;;0.60;0.60;;;0.00;99.90;;;;;;5112889;28;20203;-75
2022/11/22 02:42:58;;;;;;;0.60;0.60;;;-0.10;99.90;;;;;;5112764;28;20300;-75
2022/11/22 02:45:24;;;;;;;0.57;0.57;;;-0.10;99.90;;;;;;5112949;28;20210;-75
2022/11/22 02:47:50;;;;;;;0.47;0.47;;;-0.10;99.90;;;;;;5094835;28;20199;-75
2022/11/22 02:50:15;;;;;;;0.60;0.60;;;-0.10;99.90;;;;;;5113102;28;20215;-73
2022/11/22 02:52:41;;;;;;;0.63;0.63;;;-0.10;99.90;;;;;;5094645;28;20205;-72
2022/11/22 02:55:07;;;;;;;0.68;0.68;;;-0.10;99.90;;;;;;5112973;28;20195;-73
2022/11/22 02:57:33;;;;;;;0.70;0.70;;;-0.10;99.90;;;;;;5094439;28;20206;-71
2022/11/22 02:59:59;;;;;;;0.70;0.70;;;-0.10;99.90;;;;;;5094666;28;20199;-72
2022/11/22 03:02:24;;;;;;;0.70;0.70;;;-0.10;99.90;;;;;;5093950;28;20567;-72
2022/11/22 03:04:50;;;;;;;0.60;0.60;;;-0.10;99.90;;;;;;5112812;28;20562;-72
2022/11/22 03:07:16;;;;;;;1.13;1.02;;;0.00;99.90;;;;;;5094616;28;20255;-72
2022/11/22 03:09:42;;;;;;;0.63;0.63;;;-0.10;99.90;;;;;;5114945;28;20255;-72
2022/11/22 03:12:07;;;;;;;0.75;0.75;;;-0.10;99.90;;;;;;5116931;28;20198;-72
2022/11/22 03:14:33;;;;;;;0.55;0.55;;;-0.10;99.90;;;;;;5116429;28;20278;-71
2022/11/22 03:16:59;;;;;;;0.60;0.60;;;-0.10;99.90;;;;;;5098475;28;20264;-71
2022/11/22 03:19:24;;;;;;;0.60;0.60;;;-0.10;99.90;;;;;;5116638;28;20195;-73
2022/11/22 03:21:50;;;;;;;0.60;0.60;;;-0.10;99.90;;;;;;5098371;28;20536;-72
2022/11/22 03:24:16;;;;;;;0.60;0.60;;;-0.10;99.90;;;;;;5098294;28;20210;-72
2022/11/22 03:26:48;;;;;;;0.70;0.70;;;-0.10;99.90;;;;;;5116435;28;20188;-72
2022/11/22 03:29:16;;;;;;;0.80;0.80;;;0.00;99.90;;;;;;5116434;28;20555;-72
2022/11/22 03:31:42;;;;;;;2.22;1.80;;;0.00;99.90;;;;;;5098101;28;20535;-72
2022/11/22 03:34:10;;;;;;;0.70;0.70;;;0.00;99.90;;;;;;5099220;28;20215;-72
2022/11/22 03:36:35;;;;;;;1.00;1.00;;;0.00;99.90;;;;;;5095893;28;20241;-72
2022/11/22 03:39:01;;;;;;;0.60;0.60;;;0.00;99.90;;;;;;5112675;28;20187;-72
2022/11/22 03:41:27;;;;;;;0.80;0.80;;;0.10;99.90;;;;;;5097856;28;20282;-72
2022/11/22 03:43:52;;;;;;;0.65;0.65;;;0.20;99.90;;;;;;5116203;28;20629;-72
2022/11/22 03:46:18;;;;;;;0.70;0.70;;;0.20;99.90;;;;;;5116153;28;20642;-72
2022/11/22 03:48:44;;;;;;;1.00;0.93;;;0.20;99.90;;;;;;5116095;28;20650;-72
2022/11/22 03:51:10;;;;;;;0.60;0.60;;;0.20;99.90;;;;;;5097826;28;20685;-71
2022/11/22 03:53:36;;;;;;;0.60;0.60;;;0.20;99.90;;;;;;5097605;28;20188;-71
2022/11/22 03:56:03;;;;;;;0.68;0.68;;;0.20;99.90;;;;;;5097833;28;20638;-71
2022/11/22 03:58:29;;;;;;;0.63;0.63;;;0.20;99.90;;;;;;5115749;28;20183;-71
2022/11/22 04:00:55;;;;;;;0.60;0.60;;;0.20;99.90;;;;;;5108426;28;20563;-71
2022/11/22 04:03:21;;;;;;;0.60;0.60;;;0.20;99.90;;;;;;5106661;28;20246;-71
2022/11/22 04:05:47;;;;;;;0.70;0.70;;;0.20;99.90;;;;;;5077190;28;20212;-71
2022/11/22 04:08:13;;;;;;;0.70;0.70;;;0.20;99.90;;;;;;5095444;28;20646;-70
2022/11/22 04:10:39;;;;;;;0.60;0.60;;;0.20;99.90;;;;;;5095044;28;20204;-71
2022/11/22 04:13:04;;;;;;;0.50;0.50;;;0.10;99.90;;;;;;5095130;28;20207;-70
2022/11/22 04:15:30;;;;;;;0.70;0.70;;;0.10;99.90;;;;;;5094974;28;20678;-70
2022/11/22 04:17:56;;;;;;;0.80;0.80;;;0.10;99.90;;;;;;5077144;28;20192;-70
2022/11/22 04:23:19;;;;;;;0.70;0.70;;;0.10;99.90;;;;;;5095273;28;20257;-69
2022/11/22 04:25:50;;;;;;;0.60;0.60;;;0.10;99.90;;;;;;5095005;28;20599;-70
2022/11/22 04:28:18;;;;;;;0.70;0.70;;;0.00;99.90;;;;;;5095079;28;20716;-70
2022/11/22 04:33:29;;;;;;;0.60;0.60;;;-0.10;99.90;;;;;;5076586;28;20677;-70
2022/11/22 04:35:55;;;;;;;0.70;0.70;;;-0.20;99.90;;;;;;5094911;28;20279;-70
2022/11/22 04:38:21;;;;;;;0.65;0.65;;;-0.20;99.90;;;;;;5072831;28;20609;-71
2022/11/22 04:40:47;;;;;;;0.57;0.57;;;-0.20;99.90;;;;;;5074431;28;20614;-70
2022/11/22 04:46:09;;;;;;;0.70;0.70;;;-0.30;99.90;;;;;;5074523;28;20604;-70
2022/11/22 04:48:35;;;;;;;0.70;0.70;;;-0.40;99.90;;;;;;5074233;28;20601;-70
2022/11/22 04:53:46;;;;;;;0.77;0.77;;;-0.40;99.90;;;;;;5074306;28;20200;-70
2022/11/22 04:56:12;;;;;;;0.63;0.63;;;-0.30;99.90;;;;;;5074252;28;20193;-70
2022/11/22 04:58:38;;;;;;;0.63;0.63;;;-0.40;99.90;;;;;;5056034;28;20335;-70
2022/11/22 05:01:04;;;;;;;0.60;0.60;;;-0.40;99.90;;;;;;5074064;28;20213;-70
2022/11/22 05:03:30;;;;;;;0.70;0.70;;;-0.40;99.90;;;;;;5073881;28;20200;-69
2022/11/22 05:05:55;;;;;;;0.80;0.80;;;-0.40;99.90;;;;;;5075744;28;20196;-70
2022/11/22 05:08:21;;;;;;;0.60;0.60;;;-0.40;99.90;;;;;;5088414;27;20589;-70
2022/11/22 05:10:57;;;;;;;0.70;0.70;;;-0.30;99.90;;;;;;5135100;27;20561;-70
2022/11/22 05:13:23;;;;;;;0.70;0.70;;;-0.30;99.90;;;;;;5134926;27;20182;-70
2022/11/22 05:15:52;;;;;;;0.77;0.77;;;-0.30;99.90;;;;;;5116512;27;20198;-70
2022/11/22 05:18:19;;;;;;;0.60;0.60;;;-0.30;99.90;;;;;;5135597;27;20195;-70
2022/11/22 05:20:45;;;;;;;0.70;0.70;;;-0.20;99.90;;;;;;5116999;27;20564;-70
2022/11/22 05:25:55;;;;;;;0.70;0.70;;;-0.20;99.90;;;;;;5135354;27;20229;-70
2022/11/22 05:28:21;;;;;;;0.60;0.60;;;-0.20;99.90;;;;;;5134959;27;20179;-70
2022/11/22 05:30:48;;;;;;;0.68;0.68;;;-0.10;99.90;;;;;;5122908;27;20219;-70
2022/11/22 05:33:14;;;;;;;0.60;0.60;;;-0.10;99.90;;;;;;5114061;28;20194;-69
2022/11/22 05:35:39;;;;;;;0.60;0.60;;;-0.10;99.90;;;;;;5114247;28;20204;-69
2022/11/22 05:38:05;;;;;;;0.60;0.60;;;-0.10;99.90;;;;;;5104328;28;20658;-70
2022/11/22 05:40:31;;;;;;;0.55;0.55;;;0.00;99.90;;;;;;5075307;28;20296;-70
2022/11/22 05:42:58;;;;;;;0.90;0.90;;;-0.10;99.90;;;;;;5093479;28;20249;-69
2022/11/22 05:45:23;;;;;;;0.60;0.60;;;0.00;99.90;;;;;;5075166;28;20235;-70
2022/11/22 05:47:49;;;;;;;0.52;0.52;;;0.00;99.90;;;;;;5093539;28;20195;-69
2022/11/22 05:50:15;;;;;;;0.60;0.60;;;0.00;99.90;;;;;;5075178;28;20200;-69
2022/11/22 05:52:40;;;;;;;0.60;0.60;;;0.00;99.90;;;;;;5075100;28;20196;-69
2022/11/22 05:55:07;;;;;;;0.70;0.70;;;0.00;99.90;;;;;;5093351;28;20710;-69
2022/11/22 05:57:32;;;;;;;0.60;0.60;;;0.00;99.90;;;;;;5093185;28;20682;-70
2022/11/22 05:59:58;;;;;;;0.60;0.60;;;0.00;99.90;;;;;;5093408;28;20184;-69
2022/11/22 06:02:24;;;;;;;0.73;0.73;;;0.00;99.90;;;;;;5096238;28;20223;-69
2022/11/22 06:04:50;;;;;;;0.60;0.60;;;0.00;99.90;;;;;;5113312;28;20218;-70
2022/11/22 06:07:16;;;;;;;0.60;0.60;;;-0.10;99.90;;;;;;5095396;28;20595;-69
2022/11/22 06:09:42;;;;;;;0.60;0.60;;;-0.10;99.90;;;;;;5113086;28;20230;-69
2022/11/22 06:12:07;;;;;;;0.60;0.60;;;-0.10;99.90;;;;;;5113456;28;20203;-69
2022/11/22 06:14:33;;;;;;;0.70;0.70;;;-0.10;99.90;;;;;;5113325;28;20191;-68
2022/11/22 06:16:59;;;;;;;0.57;0.57;;;-0.10;99.90;;;;;;5095173;28;20226;-69
2022/11/22 06:19:24;;;;;;;0.60;0.60;;;-0.10;99.90;;;;;;5095035;28;20199;-70
2022/11/22 06:21:50;;;;;;;0.60;0.60;;;0.00;99.90;;;;;;5113373;28;20199;-70
2022/11/22 06:24:16;;;;;;;0.50;0.50;;;-0.10;99.90;;;;;;5094994;28;20245;-69
2022/11/22 06:26:41;;;;;;;0.70;0.70;;;-0.10;99.90;;;;;;5112809;28;20241;-70
2022/11/22 06:29:07;;;;;;;0.60;0.60;;;0.00;99.90;;;;;;5094975;28;20286;-72
2022/11/22 06:31:32;;;;;;;0.50;0.50;;;0.00;99.90;;;;;;5094848;28;20229;-70
2022/11/22 06:33:59;;;;;;;0.60;0.60;;;0.00;99.90;;;;;;5113247;28;20199;-69
2022/11/22 06:36:30;;;;;;;0.63;0.63;;;0.00;99.90;;;;;;5113097;28;20569;-69
2022/11/22 06:38:56;;;;;;;0.60;0.60;;;0.00;99.90;;;;;;5096177;28;20663;-69
2022/11/22 06:41:30;;;;;;;0.60;0.60;;;0.00;99.90;;;;;;5092600;28;20188;-69
2022/11/22 06:43:56;;;;;;;0.50;0.50;;;0.00;99.90;;;;;;5077523;28;20211;-69
2022/11/22 06:46:24;;;;;;;0.60;0.60;;;-0.10;99.90;;;;;;5096755;28;20191;-69
2022/11/22 06:48:50;;;;;;;0.60;0.60;;;-0.10;99.90;;;;;;5096827;28;20663;-68
2022/11/22 06:51:27;;;;;;;0.75;0.75;;;-0.10;99.90;;;;;;5096827;28;20256;-68
2022/11/22 06:53:54;;;;;;;0.60;0.60;;;-0.10;99.90;;;;;;5096751;28;20584;-69
2022/11/22 06:56:34;;;;;;;0.60;0.60;;;-0.10;99.90;;;;;;5096682;28;20187;-68
2022/11/22 06:59:04;;;;;;;0.50;0.50;;;-0.10;99.90;;;;;;5084655;28;20198;-69
2022/11/22 07:01:31;;;;;;;0.60;0.60;;;-0.10;99.90;;;;;;5116647;28;20202;-68
2022/11/22 07:03:57;;;;;;;0.50;0.50;;;-0.10;99.90;;;;;;5116942;28;20690;-69
2022/11/22 07:06:25;;;;;;;0.60;0.60;;;-0.10;99.90;;;;;;5116692;28;20194;-69
2022/11/22 07:08:51;;;;;;;0.60;0.60;;;0.00;99.90;;;;;;5116680;28;20234;-69
2022/11/22 07:11:22;;;;;;;0.80;0.80;;;0.00;99.90;;;;;;5116865;28;20546;-68
2022/11/22 07:13:48;;;;;;;0.70;0.70;;;0.00;99.90;;;;;;5098528;28;20191;-68
2022/11/22 07:16:17;;;;;;;0.77;0.77;;;-0.10;99.90;;;;;;5116755;28;20187;-68
2022/11/22 07:18:43;;;;;;;0.70;0.70;;;-0.10;99.90;;;;;;5116602;28;20596;-68
2022/11/22 07:21:15;;;;;;;0.60;0.60;;;-0.10;99.90;;;;;;5098312;28;20195;-68
2022/11/22 07:23:42;;;;;;;0.70;0.70;;;-0.10;99.90;;;;;;5116043;28;20615;-68
2022/11/22 07:26:08;;;;;;;0.70;0.70;;;-0.10;99.90;;;;;;5116646;28;20699;-68
2022/11/22 07:28:34;;;;;;;0.68;0.68;;;-0.10;99.90;;;;;;5098052;28;20275;-69
2022/11/22 07:31:01;;;;;;;0.70;0.70;;;-0.10;99.90;;;;;;5116306;28;20221;-68
2022/11/22 07:33:28;;;;;;;0.70;0.70;;;-0.10;99.90;;;;;;5116282;28;20759;-69
2022/11/22 07:35:54;;;;;;;0.65;0.65;;;-0.10;99.90;;;;;;5116326;28;20204;-68
2022/11/22 07:38:20;;;;;;;0.70;0.70;;;-0.10;99.90;;;;;;5104205;28;20208;-69
2022/11/22 07:40:46;;;;;;;0.60;0.60;;;-0.10;99.90;;;;;;5095788;28;20241;-68
2022/11/22 07:43:12;;;;;;;0.60;0.60;;;-0.10;99.90;;;;;;5077579;28;20601;-68
2022/11/22 07:45:37;;;;;;;0.60;0.60;;;-0.10;99.90;;;;;;5095642;28;20216;-68
2022/11/22 07:48:03;;;;;;;0.60;0.60;;;-0.10;99.90;;;;;;5095843;28;20199;-69
2022/11/22 07:50:29;;;;;;;0.73;0.73;;;-0.10;99.90;;;;;;5095433;28;20557;-69
2022/11/22 07:52:59;;;;;;;0.55;0.55;;;-0.10;99.90;;;;;;5095579;28;20555;-68
2022/11/22 07:55:26;;;;;;;0.50;0.50;;;-0.10;99.90;;;;;;5102067;28;20669;-67
2022/11/22 07:57:58;;;;;;;1.23;1.13;;;-0.10;99.90;;;;;;5097827;28;20215;-68
2022/11/22 08:00:24;;;;;;;0.68;0.68;;;-0.10;99.90;;;;;;5095281;28;20600;-68
2022/11/22 08:02:49;;;;;;;0.60;0.60;;;0.00;99.90;;;;;;5095421;28;20199;-68
2022/11/22 08:05:16;;;;;;;0.60;0.60;;;0.00;99.90;;;;;;5077223;28;20212;-68
2022/11/22 08:07:48;;;;;;;0.55;0.55;;;0.00;99.90;;;;;;5095254;28;20196;-68
2022/11/22 08:10:14;;;;;;;0.60;0.60;;;0.00;99.90;;;;;;5095302;28;20219;-68
2022/11/22 08:12:40;;;;;;;0.60;0.60;;;0.00;99.90;;;;;;5095139;28;20196;-68
2022/11/22 08:15:07;;;;;;;0.65;0.65;;;0.00;99.90;;;;;;5095224;28;20271;-69
2022/11/22 08:17:33;;;;;;;0.70;0.70;;;0.00;99.90;;;;;;5094967;28;20196;-70
2022/11/22 08:19:58;;;;;;;0.80;0.80;;;0.00;99.90;;;;;;5109647;28;20253;-68
2022/11/22 08:22:24;;;;;;;0.60;0.60;;;0.10;99.90;;;;;;5115272;28;20188;-68
2022/11/22 08:24:50;;;;;;;0.55;0.55;;;0.10;99.90;;;;;;5115320;28;20718;-68
2022/11/22 08:27:15;;;;;;;0.70;0.70;;;0.10;99.90;;;;;;5115452;28;20183;-68
2022/11/22 08:29:41;;;;;;;0.80;0.80;;;0.10;99.90;;;;;;5096807;28;20203;-68
2022/11/22 08:32:07;;;;;;;0.50;0.50;;;0.10;99.90;;;;;;5115320;28;20195;-69
2022/11/22 08:34:32;;;;;;;0.60;0.60;;;0.10;99.90;;;;;;5115179;28;20214;-68
2022/11/22 08:36:58;;;;;;;2.65;1.88;;;0.20;99.90;;;;;;5114913;28;20188;-70
2022/11/22 08:39:23;;;;;;;0.63;0.63;;;0.20;99.90;;;;;;5076400;28;20196;-68
2022/11/22 08:41:49;;;;;;;0.70;0.70;;;0.30;99.90;;;;;;5076610;28;20200;-68
2022/11/22 08:44:15;;;;;;;0.80;0.80;;;0.30;99.90;;;;;;5094656;28;20304;-68
2022/11/22 08:46:40;;;;;;;0.70;0.70;;;0.50;99.90;;;;;;5076316;28;20605;-68
2022/11/22 08:49:06;;;;;;;1.45;1.35;;;0.60;99.90;;;;;;5094548;28;20192;-69
2022/11/22 08:51:33;;;;;;;0.57;0.57;;;0.60;99.90;;;;;;5100837;28;20548;-68
2022/11/22 08:53:59;;;;;;;0.52;0.52;;;0.60;99.90;;;;;;5097906;28;20200;-68
2022/11/22 08:56:24;;;;;;;0.70;0.70;;;0.60;99.90;;;;;;5094216;28;20196;-68
2022/11/22 08:58:50;;;;;;;0.65;0.65;;;0.60;99.90;;;;;;5094281;28;20231;-69
2022/11/22 09:01:17;;;;;;;0.57;0.57;;;0.60;99.90;;;;;;5094292;28;20197;-69
2022/11/22 09:03:44;;;;;;;0.57;0.57;;;0.60;99.90;;;;;;5094118;28;20246;-69
2022/11/22 09:06:12;;;;;;;0.70;0.70;;;0.50;99.90;;;;;;5075896;28;20196;-69
2022/11/22 09:08:38;;;;;;;0.52;0.52;;;0.60;99.90;;;;;;5075750;28;21896;-68
2022/11/22 09:11:13;;;;;;;0.70;0.70;;;0.70;99.90;;;;;;5094100;28;20666;-68
2022/11/22 09:13:39;;;;;;;0.60;0.60;;;0.60;99.90;;;;;;5093912;28;20633;-69
2022/11/22 09:16:10;;;;;;;0.52;0.52;;;0.70;99.90;;;;;;5089048;28;20669;-69
2022/11/22 09:18:36;;;;;;;0.60;0.60;;;0.60;99.90;;;;;;5114256;28;20594;-69
2022/11/22 09:21:05;;;;;;;0.70;0.70;;;0.70;99.90;;;;;;5114281;28;20183;-69
2022/11/22 09:23:31;;;;;;;0.43;0.43;;;0.80;99.90;;;;;;5095808;28;20206;-69
2022/11/22 09:26:18;;;;;;;1.00;0.90;;;0.70;99.90;;;;;;5095905;28;20261;-69
2022/11/22 09:28:45;;;;;;;0.90;0.90;;;0.70;99.90;;;;;;5113975;28;20192;-69
2022/11/22 09:31:16;;;;;;;0.80;0.80;;;0.70;99.90;;;;;;5095794;28;20195;-69
2022/11/22 09:33:44;;;;;;;1.10;1.05;;;0.70;99.90;;;;;;5113858;28;20220;-69
2022/11/22 09:36:17;;;;;;;0.50;0.50;;;0.80;99.90;;;;;;5114057;28;20266;-69
2022/11/22 09:38:43;;;;;;;0.60;0.60;;;0.70;99.90;;;;;;5091968;28;20196;-68
2022/11/22 09:41:15;;;;;;;0.60;0.60;;;0.60;99.90;;;;;;5075286;28;20273;-68
2022/11/22 09:43:50;;;;;;;0.68;0.68;;;0.50;99.90;;;;;;5093348;28;20719;-69
2022/11/22 09:46:22;;;;;;;0.60;0.60;;;0.40;99.90;;;;;;5093533;28;20685;-68
2022/11/22 09:48:53;;;;;;;0.60;0.60;;;0.40;99.90;;;;;;5103528;28;20196;-69
2022/11/22 09:51:27;;;;;;;0.60;0.60;;;0.40;99.90;;;;;;5093334;28;20271;-69
2022/11/22 09:54:02;;;;;;;0.65;0.65;;;0.30;99.90;;;;;;5093394;28;20224;-69
2022/11/22 09:56:29;;;;;;;0.68;0.68;;;0.40;99.90;;;;;;5093169;28;20192;-69
2022/11/22 09:59:10;;;;;;;0.60;0.60;;;0.40;99.90;;;;;;5075051;28;20196;-69
2022/11/22 10:01:42;;;;;;;0.90;0.90;;;0.40;99.90;;;;;;5093041;28;20188;-69
2022/11/22 10:04:15;;;;;;;0.65;0.65;;;0.30;99.90;;;;;;5075070;28;20219;-70
2022/11/22 10:06:48;;;;;;;1.02;0.93;;;0.40;99.90;;;;;;5093056;28;20647;-69
2022/11/22 10:09:36;;;;;;;0.70;0.70;;;0.40;99.90;;;;;;5093205;28;20227;-69
2022/11/22 10:12:09;;;;;;;0.60;0.60;;;0.40;99.90;;;;;;5103653;28;20195;-69
2022/11/22 10:15:03;;;;;;;0.70;0.70;;;0.50;99.90;;;;;;5113369;28;20232;-68
2022/11/22 10:17:46;;;;;;;0.63;0.63;;;0.50;99.90;;;;;;5112757;28;20551;-69
2022/11/22 10:20:23;;;;;;;0.60;0.60;;;0.60;99.90;;;;;;5113345;28;20192;-69
2022/11/22 10:22:50;;;;;;;0.60;0.60;;;0.60;99.90;;;;;;5113251;28;20199;-69
2022/11/22 10:25:18;;;;;;;0.70;0.70;;;0.60;99.90;;;;;;5094891;28;20267;-69
2022/11/22 10:27:57;;;;;;;0.60;0.60;;;0.60;99.90;;;;;;5113181;28;20243;-69
2022/11/22 10:30:24;;;;;;;0.68;0.68;;;0.70;99.90;;;;;;5094677;28;20195;-69
2022/11/22 10:33:11;;;;;;;1.27;1.17;;;0.70;99.90;;;;;;5113207;28;20709;-69
2022/11/22 10:35:53;;;;;;;0.90;0.90;;;0.60;99.90;;;;;;5094836;28;20589;-69
2022/11/22 10:38:46;;;;;;;2.08;1.55;;;0.60;99.90;;;;;;5101519;28;20245;-70
2022/11/22 10:41:24;;;;;;;0.50;0.50;;;0.70;99.90;;;;;;5074618;28;20200;-69
2022/11/22 10:43:57;;;;;;;0.60;0.60;;;0.80;99.90;;;;;;5097541;28;20195;-69
2022/11/22 10:46:51;;;;;;;0.77;0.77;;;0.90;99.90;;;;;;5112814;28;20207;-69
2022/11/22 10:49:51;;;;;;;0.80;0.80;;;1.10;99.90;;;;;;5113075;28;20280;-69
2022/11/22 10:52:16;;;;;;;0.80;0.80;;;1.10;99.90;;;;;;5113091;28;20198;-69
2022/11/22 10:55:00;;;;;;;0.70;0.70;;;1.20;99.90;;;;;;5112814;28;20191;-69
2022/11/22 10:57:44;;;;;;;0.60;0.60;;;1.30;99.90;;;;;;5112800;28;20583;-69
2022/11/22 11:00:23;;;;;;;0.65;0.65;;;1.30;99.90;;;;;;5112973;28;20191;-69
2022/11/22 11:02:52;;;;;;;0.80;0.80;;;1.20;99.90;;;;;;5112835;28;20187;-69
2022/11/22 11:05:22;;;;;;;0.50;0.50;;;1.20;99.90;;;;;;5112887;28;20200;-69
2022/11/22 11:07:51;;;;;;;6.53;1.88;;;1.20;99.90;;;;;;5094187;28;20332;-69
2022/11/22 11:10:29;;;;;;;0.55;0.55;;;1.20;99.90;;;;;;5112842;28;20203;-69
2022/11/22 11:13:01;;;;;;;0.60;0.60;;;1.20;99.90;;;;;;5112740;28;20204;-69
2022/11/22 11:15:52;;;;;;;0.70;0.70;;;1.10;99.90;;;;;;5094437;28;20206;-69
2022/11/22 11:18:28;;;;;;;0.65;0.65;;;1.10;99.90;;;;;;5112775;28;20196;-69
2022/11/22 11:20:53;;;;;;;0.68;0.68;;;1.00;99.90;;;;;;5112680;28;20718;-69
2022/11/22 11:23:19;;;;;;;1.08;1.05;;;1.00;99.90;;;;;;5094607;28;20278;-69
2022/11/22 11:25:47;;;;;;;0.60;0.60;;;1.10;99.90;;;;;;5094378;28;20207;-69
2022/11/22 11:28:22;;;;;;;0.93;0.93;;;1.10;99.90;;;;;;5094451;28;20207;-69
2022/11/22 11:31:07;;;;;;;0.57;0.57;;;1.10;99.90;;;;;;5096706;28;20202;-69
2022/11/22 11:33:37;;;;;;;0.57;0.57;;;1.10;99.90;;;;;;5116295;28;20226;-68
2022/11/22 11:36:22;;;;;;;0.65;0.65;;;1.20;99.90;;;;;;5098184;28;20191;-69
2022/11/22 11:38:53;;;;;;;0.75;0.75;;;1.10;99.90;;;;;;5100544;28;20206;-69
2022/11/22 11:41:32;;;;;;;0.60;0.60;;;1.10;99.90;;;;;;5087771;28;20200;-70
2022/11/22 11:44:03;;;;;;;0.80;0.80;;;1.10;99.90;;;;;;5095785;28;20218;-69
2022/11/22 11:46:44;;;;;;;0.70;0.70;;;1.10;99.90;;;;;;5095733;28;20712;-69
2022/11/22 11:49:14;;;;;;;0.50;0.50;;;1.00;99.90;;;;;;5095697;28;20673;-69
2022/11/22 11:51:40;;;;;;;0.70;0.70;;;0.90;99.90;;;;;;5095628;28;20200;-69
2022/11/22 11:54:19;;;;;;;0.65;0.65;;;1.00;99.90;;;;;;5077546;28;20199;-69
2022/11/22 11:56:48;;;;;;;0.70;0.70;;;0.90;99.90;;;;;;5095563;28;20267;-69
2022/11/22 11:59:19;;;;;;;0.60;0.60;;;0.90;99.90;;;;;;5095601;28;20665;-69
2022/11/22 12:02:01;;;;;;;0.63;0.63;;;0.90;99.90;;;;;;5095482;28;20188;-68
2022/11/22 12:04:31;;;;;;;0.60;0.60;;;0.80;99.90;;;;;;5087021;28;20238;-69
2022/11/22 12:07:17;;;;;;;0.60;0.60;;;0.80;99.90;;;;;;5115700;28;20223;-69
2022/11/22 12:09:45;;;;;;;0.60;0.60;;;0.80;99.90;;;;;;5115384;28;20311;-69
2022/11/22 12:12:34;;;;;;;0.52;0.52;;;0.80;99.90;;;;;;5115755;28;20256;-70
2022/11/22 12:15:31;;;;;;;0.70;0.70;;;0.70;99.90;;;;;;5097382;28;20203;-68
2022/11/22 12:18:06;;;;;;;0.77;0.77;;;0.70;99.90;;;;;;5115804;28;20554;-69
2022/11/22 12:21:12;;;;;;;0.50;0.50;;;0.70;99.90;;;;;;5115474;28;20255;-68
2022/11/22 12:24:10;;;;;;;0.60;0.60;;;0.60;99.90;;;;;;5080460;28;20207;-69
2022/11/22 12:26:37;;;;;;;0.60;0.60;;;0.50;99.90;;;;;;5115287;28;20278;-69
2022/11/22 12:29:03;;;;;;;1.42;1.33;;;0.60;99.90;;;;;;5115332;28;20194;-69
2022/11/22 12:31:36;;;;;;;0.70;0.70;;;0.60;99.90;;;;;;5115168;28;20184;-69
2022/11/22 12:34:12;;;;;;;0.60;0.60;;;0.60;99.90;;;;;;5096996;28;20188;-68
2022/11/22 12:36:46;;;;;;;0.65;0.65;;;0.60;99.90;;;;;;5114980;28;20191;-70
2022/11/22 12:39:18;;;;;;;0.70;0.70;;;0.60;99.90;;;;;;5096715;28;20195;-69
2022/11/22 12:41:47;;;;;;;0.50;0.50;;;0.70;99.90;;;;;;5114553;28;20673;-69
2022/11/22 12:44:17;;;;;;;0.50;0.50;;;0.70;99.90;;;;;;5115156;28;20191;-69
2022/11/22 12:46:49;;;;;;;0.60;0.60;;;0.70;99.90;;;;;;5096577;28;20632;-69
2022/11/22 12:49:18;;;;;;;1.08;1.00;;;0.80;99.90;;;;;;5115039;28;20556;-69
2022/11/22 12:52:13;;;;;;;0.80;0.80;;;0.80;99.90;;;;;;5096592;28;20188;-69
2022/11/22 12:55:08;;;;;;;0.60;0.60;;;0.80;99.90;;;;;;5096449;28;20677;-69
2022/11/22 12:57:56;;;;;;;3.30;1.05;;;0.80;99.90;;;;;;5096514;28;20212;-69
2022/11/22 13:00:25;;;;;;;0.50;0.50;;;0.90;99.90;;;;;;5095894;28;20203;-69
2022/11/22 13:03:23;;;;;;;0.50;0.50;;;0.90;99.90;;;;;;5096270;28;20191;-69
2022/11/22 13:05:54;;;;;;;0.70;0.70;;;0.80;99.90;;;;;;5095464;28;20220;-69
2022/11/22 13:08:31;;;;;;;0.65;0.65;;;0.80;99.90;;;;;;5114617;28;20685;-69
2022/11/22 13:11:03;;;;;;;0.50;0.50;;;0.80;99.90;;;;;;5114517;28;20195;-69
2022/11/22 13:13:37;;;;;;;0.57;0.57;;;0.80;99.90;;;;;;5114328;28;20244;-69
2022/11/22 13:16:07;;;;;;;0.50;0.50;;;0.80;99.90;;;;;;5114511;28;20247;-69
2022/11/22 13:18:38;;;;;;;0.73;0.73;;;0.70;99.90;;;;;;5114233;28;20647;-68